Observation data for Silverton on 01/12/2018      Previous  Date  Next       Current Mesonet Observations  Soil Data  Daily Summary Page  Observations in Plain Language
KSVS 120600Z 02007KT M07/M13 A3027 RMK A01 T10741134  RH  063%=      5-min Rain = 0
KSVS 120605Z 03008KT M07/M12 A3026 RMK A01 T10671122  RH  066%=      5-min Rain = 0
KSVS 120610Z 03007KT M06/M12 A3027 RMK A01 T10601117  RH  065%=      5-min Rain = 0
KSVS 120615Z 03006KT M06/M12 A3027 RMK A01 T10591117  RH  064%=      5-min Rain = 0
KSVS 120620Z 03006KT M07/M12 A3027 RMK A01 T10661123  RH  065%=      5-min Rain = 0
KSVS 120625Z 02006KT M07/M12 A3027 RMK A01 T10671121  RH  066%=      5-min Rain = 0
KSVS 120630Z 02006KT M06/M12 A3027 RMK A01 T10641120  RH  066%=      5-min Rain = 0
KSVS 120635Z 01006KT M07/M13 A3027 RMK A01 T10701125  RH  066%=      5-min Rain = 0
KSVS 120640Z 02006KT M07/M12 A3027 RMK A01 T10671120  RH  067%=      5-min Rain = 0
KSVS 120645Z 02006KT M06/M12 A3026 RMK A01 T10571115  RH  065%=      5-min Rain = 0
KSVS 120650Z 02006KT M05/M11 A3026 RMK A01 T10531114  RH  063%=      5-min Rain = 0
KSVS 120655Z 03006KT M05/M11 A3026 RMK A01 T10491111  RH  063%=      5-min Rain = 0
KSVS 120700Z 03006KT M05/M12 A3026 RMK A01 T10541116  RH  063%=      5-min Rain = 0
KSVS 120705Z 03005KT M06/M12 A3026 RMK A01 T10561115  RH  064%=      5-min Rain = 0
KSVS 120710Z 03004KT M07/M13 A3026 RMK A01 T10701128  RH  064%=      5-min Rain = 0
KSVS 120715Z 00002KT M08/M14 A3026 RMK A01 T10811135  RH  066%=      5-min Rain = 0
KSVS 120720Z 25000KT M08/M13 A3026 RMK A01 T10821130  RH  069%=      5-min Rain = 0
KSVS 120725Z 29001KT M08/M13 A3026 RMK A01 T10791128  RH  069%=      5-min Rain = 0
KSVS 120730Z 25000KT M07/M13 A3026 RMK A01 T10741126  RH  067%=      5-min Rain = 0
KSVS 120735Z 20001KT M08/M13 A3026 RMK A01 T10781129  RH  068%=      5-min Rain = 0
KSVS 120740Z 20002KT M08/M13 A3026 RMK A01 T10781128  RH  068%=      5-min Rain = 0
KSVS 120745Z 20001KT M08/M13 A3025 RMK A01 T10841133  RH  069%=      5-min Rain = 0
KSVS 120750Z 18000KT M09/M13 A3025 RMK A01 T10861133  RH  070%=      5-min Rain = 0
KSVS 120755Z 18001KT M09/M13 A3025 RMK A01 T10881133  RH  071%=      5-min Rain = 0
KSVS 120800Z 18000KT M09/M13 A3025 RMK A01 T10881132  RH  071%=      5-min Rain = 0
KSVS 120805Z 09000KT M09/M13 A3025 RMK A01 T10871132  RH  071%=      5-min Rain = 0
KSVS 120810Z 08001KT M09/M13 A3025 RMK A01 T10851131  RH  070%=      5-min Rain = 0
KSVS 120815Z 08000KT M09/M13 A3025 RMK A01 T10861131  RH  071%=      5-min Rain = 0
KSVS 120820Z 10002KT M08/M12 A3025 RMK A01 T10791121  RH  073%=      5-min Rain = 0
KSVS 120825Z 08003KT M07/M11 A3025 RMK A01 T10651109  RH  072%=      5-min Rain = 0
KSVS 120830Z 05002KT M07/M13 A3025 RMK A01 T10721125  RH  067%=      5-min Rain = 0
KSVS 120835Z 05003KT M08/M12 A3025 RMK A01 T10781124  RH  071%=      5-min Rain = 0
KSVS 120840Z 04004KT M07/M12 A3026 RMK A01 T10721120  RH  070%=      5-min Rain = 0
KSVS 120845Z 03003KT M09/M14 A3026 RMK A01 T10931142  RH  069%=      5-min Rain = 0
KSVS 120850Z 05004KT M10/M14 A3025 RMK A01 T10991143  RH  071%=      5-min Rain = 0
KSVS 120855Z 06004KT M10/M14 A3024 RMK A01 T10981141  RH  072%=      5-min Rain = 0
KSVS 120900Z 07002KT M10/M14 A3024 RMK A01 T10981142  RH  071%=      5-min Rain = 0
KSVS 120905Z 11003KT M08/M12 A3024 RMK A01 T10801117  RH  076%=      5-min Rain = 0
KSVS 120910Z 12002KT M06/M11 A3024 RMK A01 T10621112  RH  069%=      5-min Rain = 0
KSVS 120915Z 13003KT M07/M12 A3023 RMK A01 T10691118  RH  069%=      5-min Rain = 0
KSVS 120920Z 16003KT M07/M12 A3023 RMK A01 T10721121  RH  069%=      5-min Rain = 0
KSVS 120925Z 14003KT M08/M12 A3023 RMK A01 T10771120  RH  072%=      5-min Rain = 0
KSVS 120930Z 12004KT M06/M11 A3023 RMK A01 T10641114  RH  069%=      5-min Rain = 0
KSVS 120935Z 19003KT M09/M14 A3023 RMK A01 T10851137  RH  067%=      5-min Rain = 0
KSVS 120940Z 15003KT M08/M12 A3023 RMK A01 T10811119  RH  075%=      5-min Rain = 0
KSVS 120945Z 17003KT M08/M12 A3023 RMK A01 T10751123  RH  070%=      5-min Rain = 0
KSVS 120950Z 16003KT M09/M14 A3023 RMK A01 T10911137  RH  071%=      5-min Rain = 0
KSVS 120955Z 17001KT M09/M13 A3023 RMK A01 T10921134  RH  073%=      5-min Rain = 0
KSVS 121000Z 11002KT M10/M14 A3023 RMK A01 T10951137  RH  073%=      5-min Rain = 0
KSVS 121005Z 09002KT M10/M14 A3023 RMK A01 T10961139  RH  072%=      5-min Rain = 0
KSVS 121010Z 12002KT M10/M14 A3023 RMK A01 T10991142  RH  072%=      5-min Rain = 0
KSVS 121015Z 12003KT M10/M14 A3023 RMK A01 T10981139  RH  073%=      5-min Rain = 0
KSVS 121020Z 14003KT M08/M12 A3023 RMK A01 T10841124  RH  074%=      5-min Rain = 0
KSVS 121025Z 13004KT M08/M12 A3023 RMK A01 T10781122  RH  072%=      5-min Rain = 0
KSVS 121030Z 12003KT M08/M13 A3023 RMK A01 T10781125  RH  070%=      5-min Rain = 0
KSVS 121035Z 11003KT M10/M14 A3023 RMK A01 T10951141  RH  070%=      5-min Rain = 0
KSVS 121040Z 11004KT M08/M12 A3023 RMK A01 T10821122  RH  074%=      5-min Rain = 0
KSVS 121045Z 11003KT M09/M14 A3023 RMK A01 T10941140  RH  070%=      5-min Rain = 0
KSVS 121050Z 11003KT M10/M13 A3023 RMK A01 T10951133  RH  075%=      5-min Rain = 0
KSVS 121055Z 12003KT M08/M12 A3023 RMK A01 T10831119  RH  076%=      5-min Rain = 0
KSVS 121100Z 13003KT M07/M11 A3023 RMK A01 T10721112  RH  074%=      5-min Rain = 0
KSVS 121105Z 12004KT M06/M11 A3023 RMK A01 T10641108  RH  072%=      5-min Rain = 0
KSVS 121110Z 21004KT M09/M14 A3024 RMK A01 T10891140  RH  068%=      5-min Rain = 0
KSVS 121115Z 22007KT M11/M14 A3024 RMK A01 T11051143  RH  075%=      5-min Rain = 0
KSVS 121120Z 20006KT M10/M13 A3024 RMK A01 T11001133  RH  078%=      5-min Rain = 0
KSVS 121125Z 20005KT M10/M13 A3024 RMK A01 T10961131  RH  077%=      5-min Rain = 0
KSVS 121130Z 19005KT M09/M13 A3024 RMK A01 T10921127  RH  077%=      5-min Rain = 0
KSVS 121135Z 19005KT M09/M13 A3024 RMK A01 T10871125  RH  075%=      5-min Rain = 0
KSVS 121140Z 16005KT M09/M13 A3024 RMK A01 T10871129  RH  073%=      5-min Rain = 0
KSVS 121145Z 18005KT M09/M13 A3024 RMK A01 T10941132  RH  075%=      5-min Rain = 0
KSVS 121150Z 17005KT M09/M13 A3024 RMK A01 T10921132  RH  074%=      5-min Rain = 0
KSVS 121155Z 15006KT M09/M13 A3024 RMK A01 T10941131  RH  076%=      5-min Rain = 0
KSVS 121200Z 16005KT M09/M13 A3024 RMK A01 T10941129  RH  076%=      5-min Rain = 0
KSVS 121205Z 15006KT M10/M13 A3023 RMK A01 T10951133  RH  075%=      5-min Rain = 0
KSVS 121210Z 14006KT M10/M14 A3023 RMK A01 T11011138  RH  075%=      5-min Rain = 0
KSVS 121215Z 15005KT M10/M13 A3023 RMK A01 T10971131  RH  077%=      5-min Rain = 0
KSVS 121220Z 16005KT M09/M12 A3024 RMK A01 T10911123  RH  078%=      5-min Rain = 0
KSVS 121225Z 17005KT M09/M12 A3024 RMK A01 T10871120  RH  078%=      5-min Rain = 0
KSVS 121230Z 17005KT M09/M12 A3024 RMK A01 T10851120  RH  077%=      5-min Rain = 0
KSVS 121235Z 15006KT M09/M12 A3024 RMK A01 T10851121  RH  077%=      5-min Rain = 0
KSVS 121240Z 15006KT M09/M13 A3023 RMK A01 T10911127  RH  076%=      5-min Rain = 0
KSVS 121245Z 15006KT M09/M13 A3023 RMK A01 T10931127  RH  077%=      5-min Rain = 0
KSVS 121250Z 15005KT M10/M13 A3023 RMK A01 T10951128  RH  078%=      5-min Rain = 0
KSVS 121255Z 15005KT M10/M13 A3023 RMK A01 T10951127  RH  079%=      5-min Rain = 0
KSVS 121300Z 14004KT M09/M12 A3023 RMK A01 T10931123  RH  079%=      5-min Rain = 0
KSVS 121305Z 15002KT M09/M12 A3023 RMK A01 T10931124  RH  079%=      5-min Rain = 0
KSVS 121310Z 15004KT M09/M12 A3023 RMK A01 T10911121  RH  080%=      5-min Rain = 0
KSVS 121315Z 15004KT M09/M12 A3023 RMK A01 T10851116  RH  080%=      5-min Rain = 0
KSVS 121320Z 16004KT M08/M11 A3023 RMK A01 T10791111  RH  079%=      5-min Rain = 0
KSVS 121325Z 17004KT M08/M11 A3023 RMK A01 T10801113  RH  078%=      5-min Rain = 0
KSVS 121330Z 19004KT M09/M12 A3024 RMK A01 T10901124  RH  077%=      5-min Rain = 0
KSVS 121335Z 20004KT M10/M13 A3024 RMK A01 T11001133  RH  078%=      5-min Rain = 0
KSVS 121340Z 23004KT M11/M14 A3025 RMK A01 T11091142  RH  078%=      5-min Rain = 0
KSVS 121345Z 21006KT M12/M15 A3025 RMK A01 T11161148  RH  078%=      5-min Rain = 0
KSVS 121350Z 22006KT M12/M15 A3025 RMK A01 T11161146  RH  079%=      5-min Rain = 0
KSVS 121355Z 22006KT M11/M14 A3025 RMK A01 T11141143  RH  080%=      5-min Rain = 0
KSVS 121400Z 22007KT M11/M14 A3025 RMK A01 T11121141  RH  080%=      5-min Rain = 0
KSVS 121405Z 21007KT M11/M14 A3025 RMK A01 T11081138  RH  080%=      5-min Rain = 0
KSVS 121410Z 22006KT M10/M14 A3025 RMK A01 T11041135  RH  080%=      5-min Rain = 0
KSVS 121415Z 21006KT M10/M13 A3025 RMK A01 T10991129  RH  080%=      5-min Rain = 0
KSVS 121420Z 21007KT M09/M13 A3025 RMK A01 T10921125  RH  078%=      5-min Rain = 0
KSVS 121425Z 21007KT M09/M12 A3025 RMK A01 T10891123  RH  077%=      5-min Rain = 0
KSVS 121430Z 21006KT M08/M12 A3025 RMK A01 T10821117  RH  077%=      5-min Rain = 0
KSVS 121435Z 21006KT M07/M11 A3025 RMK A01 T10721108  RH  076%=      5-min Rain = 0
KSVS 121440Z 20006KT M06/M10 A3025 RMK A01 T10631102  RH  075%=      5-min Rain = 0
KSVS 121445Z 20006KT M06/M10 A3025 RMK A01 T10561098  RH  073%=      5-min Rain = 0
KSVS 121450Z 20006KT M05/M09 A3025 RMK A01 T10511094  RH  072%=      5-min Rain = 0
KSVS 121455Z 20005KT M04/M09 A3025 RMK A01 T10441089  RH  072%=      5-min Rain = 0
KSVS 121500Z 21006KT M04/M09 A3025 RMK A01 T10391086  RH  071%=      5-min Rain = 0
KSVS 121505Z 20006KT M04/M09 A3025 RMK A01 T10351086  RH  069%=      5-min Rain = 0
KSVS 121510Z 20007KT M03/M09 A3025 RMK A01 T10311085  RH  067%=      5-min Rain = 0
KSVS 121515Z 20006KT M03/M08 A3024 RMK A01 T10271083  RH  066%=      5-min Rain = 0
KSVS 121520Z 19007KT M02/M08 A3024 RMK A01 T10231084  RH  064%=      5-min Rain = 0
KSVS 121525Z 19007KT M02/M08 A3025 RMK A01 T10201084  RH  062%=      5-min Rain = 0
KSVS 121530Z 19007KT M02/M08 A3025 RMK A01 T10161083  RH  061%=      5-min Rain = 0
KSVS 121535Z 18007KT M01/M08 A3025 RMK A01 T10121084  RH  059%=      5-min Rain = 0
KSVS 121540Z 18008KT M01/M09 A3025 RMK A01 T10091087  RH  056%=      5-min Rain = 0
KSVS 121545Z 19008KT M01/M09 A3025 RMK A01 T10091090  RH  055%=      5-min Rain = 0
KSVS 121550Z 18008KT M01/M09 A3025 RMK A01 T10051089  RH  054%=      5-min Rain = 0
KSVS 121555Z 18007KT 00/09 A3025 RMK A01 T00000-88  RH  052%=      5-min Rain = 0
KSVS 121600Z 18009KT 00/M09 A3025 RMK A01 T00011092  RH  050%=      5-min Rain = 0
KSVS 121605Z 18006KT 00/M09 A3026 RMK A01 T00031091  RH  050%=      5-min Rain = 0
KSVS 121610Z 15007KT 01/M09 A3026 RMK A01 T00051091  RH  049%=      5-min Rain = 0
KSVS 121615Z 15006KT 01/M09 A3026 RMK A01 T00061091  RH  049%=      5-min Rain = 0
KSVS 121620Z 15007KT 01/M09 A3026 RMK A01 T00081092  RH  048%=      5-min Rain = 0
KSVS 121625Z 15008KT 01/M09 A3025 RMK A01 T00081093  RH  048%=      5-min Rain = 0
KSVS 121630Z 16007KT 01/M09 A3025 RMK A01 T00081093  RH  047%=      5-min Rain = 0
KSVS 121635Z 17007KT 01/M09 A3025 RMK A01 T00111092  RH  047%=      5-min Rain = 0
KSVS 121640Z 16008KT 01/M09 A3025 RMK A01 T00101094  RH  047%=      5-min Rain = 0
KSVS 121645Z 16008KT 01/M09 A3025 RMK A01 T00131092  RH  046%=      5-min Rain = 0
KSVS 121650Z 18008KT 02/M09 A3025 RMK A01 T00151093  RH  045%=      5-min Rain = 0
KSVS 121655Z 17009KT 02/M09 A3025 RMK A01 T00171092  RH  045%=      5-min Rain = 0
KSVS 121700Z 17009KT 02/M09 A3024 RMK A01 T00201091  RH  044%=      5-min Rain = 0
KSVS 121705Z 17009KT 02/M09 A3024 RMK A01 T00211092  RH  044%=      5-min Rain = 0
KSVS 121710Z 16009KT 02/M09 A3024 RMK A01 T00241091  RH  043%=      5-min Rain = 0
KSVS 121715Z 16009KT 03/M09 A3024 RMK A01 T00261091  RH  042%=      5-min Rain = 0
KSVS 121720Z 17009KT 03/M09 A3024 RMK A01 T00291091  RH  041%=      5-min Rain = 0
KSVS 121725Z 17010KT 03/M09 A3023 RMK A01 T00291092  RH  041%=      5-min Rain = 0
KSVS 121730Z 17010KT 03/M09 A3023 RMK A01 T00331092  RH  040%=      5-min Rain = 0
KSVS 121735Z 16010KT 04/M09 A3022 RMK A01 T00381091  RH  039%=      5-min Rain = 0
KSVS 121740Z 17010KT 04/M09 A3022 RMK A01 T00361093  RH  039%=      5-min Rain = 0
KSVS 121745Z 16008G15KT 04/M09 A3021 RMK A01 T00361093  RH  039%=      5-min Rain = 0
KSVS 121750Z 16010KT 04/M09 A3021 RMK A01 T00401094  RH  038%=      5-min Rain = 0
KSVS 121755Z 15010KT 04/M09 A302 RMK A01 T00431093  RH  037%=      5-min Rain = 0
KSVS 121800Z 14009KT 04/M10 A302 RMK A01 T00391095  RH  037%=      5-min Rain = 0
KSVS 121805Z 14010KT 04/M09 A3019 RMK A01 T00411094  RH  037%=      5-min Rain = 0
KSVS 121810Z 15010G15KT 04/M10 A3019 RMK A01 T00441095  RH  036%=      5-min Rain = 0
KSVS 121815Z 15010KT 04/M10 A3019 RMK A01 T00431095  RH  036%=      5-min Rain = 0
KSVS 121820Z 15009G14KT 04/M10 A3018 RMK A01 T00421096  RH  036%=      5-min Rain = 0
KSVS 121825Z 15011G17KT 04/M10 A3018 RMK A01 T00441097  RH  035%=      5-min Rain = 0
KSVS 121830Z 15010KT 05/M10 A3018 RMK A01 T00471097  RH  035%=      5-min Rain = 0
KSVS 121835Z 14009KT 05/M10 A3017 RMK A01 T00491098  RH  034%=      5-min Rain = 0
KSVS 121840Z 14010KT 05/M10 A3017 RMK A01 T00501098  RH  034%=      5-min Rain = 0
KSVS 121845Z 13011KT 05/M10 A3017 RMK A01 T00511100  RH  033%=      5-min Rain = 0
KSVS 121850Z 14011KT 05/M10 A3016 RMK A01 T00521100  RH  033%=      5-min Rain = 0
KSVS 121855Z 13010KT 06/M10 A3016 RMK A01 T00551100  RH  032%=      5-min Rain = 0
KSVS 121900Z 14011KT 06/M10 A3015 RMK A01 T00551102  RH  032%=      5-min Rain = 0
KSVS 121905Z 13010KT 06/M10 A3015 RMK A01 T00581100  RH  031%=      5-min Rain = 0
KSVS 121910Z 13011KT 06/M10 A3015 RMK A01 T00581102  RH  031%=      5-min Rain = 0
KSVS 121915Z 13010KT 06/M10 A3015 RMK A01 T00581103  RH  031%=      5-min Rain = 0
KSVS 121920Z 13010KT 06/M11 A3015 RMK A01 T00581105  RH  030%=      5-min Rain = 0
KSVS 121925Z 13011KT 06/M11 A3014 RMK A01 T00591106  RH  030%=      5-min Rain = 0
KSVS 121930Z 14011KT 06/M11 A3014 RMK A01 T00621106  RH  029%=      5-min Rain = 0
KSVS 121935Z 13010KT 07/M11 A3014 RMK A01 T00651107  RH  028%=      5-min Rain = 0
KSVS 121940Z 14009G14KT 07/M11 A3014 RMK A01 T00701106  RH  028%=      5-min Rain = 0
KSVS 121945Z 17011G18KT 08/M11 A3014 RMK A01 T00841114  RH  024%=      5-min Rain = 0
KSVS 121950Z 17015G20KT 08/M12 A3013 RMK A01 T00821124  RH  022%=      5-min Rain = 0
KSVS 121955Z 18012G19KT 09/M12 A3013 RMK A01 T00871122  RH  022%=      5-min Rain = 0
KSVS 122000Z 19013G19KT 08/M13 A3013 RMK A01 T00801125  RH  022%=      5-min Rain = 0
KSVS 122005Z 19016G22KT 08/M12 A3013 RMK A01 T00821122  RH  022%=      5-min Rain = 0
KSVS 122010Z 19011G16KT 09/M12 A3013 RMK A01 T00861121  RH  022%=      5-min Rain = 0
KSVS 122015Z 19012G19KT 09/M12 A3013 RMK A01 T00851124  RH  022%=      5-min Rain = 0
KSVS 122020Z 18011G18KT 09/M12 A3013 RMK A01 T00861123  RH  022%=      5-min Rain = 0
KSVS 122025Z 18014G20KT 09/M12 A3014 RMK A01 T00861124  RH  021%=      5-min Rain = 0
KSVS 122030Z 18010G15KT 09/M12 A3013 RMK A01 T00861123  RH  022%=      5-min Rain = 0
KSVS 122035Z 20012G18KT 09/M12 A3013 RMK A01 T00911123  RH  021%=      5-min Rain = 0
KSVS 122040Z 19011KT 09/M13 A3013 RMK A01 T00891125  RH  021%=      5-min Rain = 0
KSVS 122045Z 18011G16KT 09/M12 A3013 RMK A01 T00861124  RH  022%=      5-min Rain = 0
KSVS 122050Z 17012KT 09/M12 A3013 RMK A01 T00901123  RH  021%=      5-min Rain = 0
KSVS 122055Z 19012G17KT 09/M12 A3012 RMK A01 T00881124  RH  021%=      5-min Rain = 0
KSVS 122100Z 19012KT 09/M12 A3012 RMK A01 T00891122  RH  021%=      5-min Rain = 0
KSVS 122105Z 18011G16KT 09/M12 A3012 RMK A01 T00901121  RH  021%=      5-min Rain = 0
KSVS 122110Z 19011G17KT 09/M12 A3013 RMK A01 T00881120  RH  022%=      5-min Rain = 0
KSVS 122115Z 19010KT 09/M12 A3013 RMK A01 T00891120  RH  022%=      5-min Rain = 0
KSVS 122120Z 20011KT 09/M12 A3012 RMK A01 T00901119  RH  022%=      5-min Rain = 0
KSVS 122125Z 18011G16KT 09/M12 A3012 RMK A01 T00881120  RH  022%=      5-min Rain = 0
KSVS 122130Z 17012G17KT 09/M12 A3013 RMK A01 T00901119  RH  022%=      5-min Rain = 0
KSVS 122135Z 17011G16KT 09/M12 A3012 RMK A01 T00891120  RH  022%=      5-min Rain = 0
KSVS 122140Z 17010KT 09/M12 A3012 RMK A01 T00901118  RH  022%=      5-min Rain = 0
KSVS 122145Z 18012G17KT 09/M12 A3012 RMK A01 T00931118  RH  021%=      5-min Rain = 0
KSVS 122150Z 18012KT 09/M12 A3012 RMK A01 T00891118  RH  022%=      5-min Rain = 0
KSVS 122155Z 19009G14KT 09/M12 A3012 RMK A01 T00881118  RH  022%=      5-min Rain = 0
KSVS 122200Z 18011KT 08/M12 A3013 RMK A01 T00841119  RH  023%=      5-min Rain = 0
KSVS 122205Z 18010KT 08/M12 A3013 RMK A01 T00801118  RH  023%=      5-min Rain = 0
KSVS 122210Z 17010KT 08/M12 A3013 RMK A01 T00831116  RH  023%=      5-min Rain = 0
KSVS 122215Z 18010G16KT 09/M12 A3013 RMK A01 T00861116  RH  023%=      5-min Rain = 0
KSVS 122220Z 17009KT 08/M12 A3013 RMK A01 T00791115  RH  024%=      5-min Rain = 0
KSVS 122225Z 17009KT 08/M12 A3013 RMK A01 T00791115  RH  024%=      5-min Rain = 0
KSVS 122230Z 17007KT 08/M11 A3014 RMK A01 T00801113  RH  024%=      5-min Rain = 0
KSVS 122235Z 17008KT 09/M11 A3014 RMK A01 T00861113  RH  024%=      5-min Rain = 0
KSVS 122240Z 17008KT 08/M11 A3014 RMK A01 T00841113  RH  024%=      5-min Rain = 0
KSVS 122245Z 16009KT 08/M11 A3014 RMK A01 T00821113  RH  024%=      5-min Rain = 0
KSVS 122250Z 16008KT 08/M11 A3015 RMK A01 T00801113  RH  024%=      5-min Rain = 0
KSVS 122255Z 17007KT 08/M11 A3015 RMK A01 T00791113  RH  025%=      5-min Rain = 0
KSVS 122300Z 15008KT 08/M11 A3015 RMK A01 T00821113  RH  024%=      5-min Rain = 0
KSVS 122305Z 16009KT 08/M11 A3015 RMK A01 T00801114  RH  024%=      5-min Rain = 0
KSVS 122310Z 16008KT 08/M11 A3016 RMK A01 T00781114  RH  025%=      5-min Rain = 0
KSVS 122315Z 15007KT 08/M12 A3016 RMK A01 T00751115  RH  025%=      5-min Rain = 0
KSVS 122320Z 15008KT 07/M12 A3016 RMK A01 T00731115  RH  025%=      5-min Rain = 0
KSVS 122325Z 15007KT 07/M12 A3017 RMK A01 T00681116  RH  026%=      5-min Rain = 0
KSVS 122330Z 16008KT 07/M12 A3016 RMK A01 T00651116  RH  027%=      5-min Rain = 0
KSVS 122335Z 15007KT 06/M12 A3016 RMK A01 T00601118  RH  027%=      5-min Rain = 0
KSVS 122340Z 13007KT 05/M12 A3016 RMK A01 T00521118  RH  028%=      5-min Rain = 0
KSVS 122345Z 13008KT 04/M12 A3017 RMK A01 T00441118  RH  030%=      5-min Rain = 0
KSVS 122350Z 13008KT 04/M12 A3017 RMK A01 T00401116  RH  032%=      5-min Rain = 0
KSVS 122355Z 12008KT 04/M12 A3017 RMK A01 T00361115  RH  033%=      5-min Rain = 0
KSVS 130000Z 13009KT 03/M11 A3017 RMK A01 T00311114  RH  034%=      5-min Rain = 0
KSVS 130005Z 12008KT 03/M12 A3017 RMK A01 T00271116  RH  035%=      5-min Rain = 0
KSVS 130010Z 12008KT 02/M12 A3018 RMK A01 T00231117  RH  035%=      5-min Rain = 0
KSVS 130015Z 11010KT 02/M12 A3018 RMK A01 T00211117  RH  036%=      5-min Rain = 0
KSVS 130020Z 11010KT 03/M12 A3019 RMK A01 T00251118  RH  035%=      5-min Rain = 0
KSVS 130025Z 11009KT 02/M12 A3019 RMK A01 T00221120  RH  035%=      5-min Rain = 0
KSVS 130030Z 10009KT 02/M12 A302 RMK A01 T00171124  RH  035%=      5-min Rain = 0
KSVS 130035Z 09010KT 02/M13 A3021 RMK A01 T00171129  RH  033%=      5-min Rain = 0
KSVS 130040Z 09011KT 02/M13 A3022 RMK A01 T00171133  RH  032%=      5-min Rain = 0
KSVS 130045Z 08011KT 02/M14 A3023 RMK A01 T00151135  RH  032%=      5-min Rain = 0
KSVS 130050Z 09012KT 01/M14 A3023 RMK A01 T00141136  RH  032%=      5-min Rain = 0
KSVS 130055Z 09012KT 01/M14 A3024 RMK A01 T00141137  RH  032%=      5-min Rain = 0
KSVS 130100Z 09012KT 01/M14 A3024 RMK A01 T00141138  RH  032%=      5-min Rain = 0
KSVS 130105Z 10011KT 01/M14 A3024 RMK A01 T00131139  RH  032%=      5-min Rain = 0
KSVS 130110Z 10011KT 01/M14 A3024 RMK A01 T00101139  RH  032%=      5-min Rain = 0
KSVS 130115Z 09010KT 01/M14 A3025 RMK A01 T00071140  RH  033%=      5-min Rain = 0
KSVS 130120Z 09010KT 01/M14 A3025 RMK A01 T00061140  RH  033%=      5-min Rain = 0
KSVS 130125Z 08009KT 00/M14 A3026 RMK A01 T00041139  RH  034%=      5-min Rain = 0
KSVS 130130Z 07010KT 00/M14 A3027 RMK A01 T00031136  RH  035%=      5-min Rain = 0
KSVS 130135Z 07011KT 00/M14 A3027 RMK A01 T00041136  RH  035%=      5-min Rain = 0
KSVS 130140Z 08012KT 01/M14 A3028 RMK A01 T00071136  RH  034%=      5-min Rain = 0
KSVS 130145Z 08011G16KT 01/M14 A3028 RMK A01 T00061137  RH  034%=      5-min Rain = 0
KSVS 130150Z 07010KT 00/M14 A3028 RMK A01 T00031137  RH  034%=      5-min Rain = 0
KSVS 130155Z 08011KT 00/M14 A3029 RMK A01 T00011138  RH  035%=      5-min Rain = 0
KSVS 130200Z 08009KT M00/M14 A3029 RMK A01 T10021141  RH  035%=      5-min Rain = 0
KSVS 130205Z 07011G16KT M00/M14 A303 RMK A01 T10041141  RH  035%=      5-min Rain = 0
KSVS 130210Z 07011KT M01/M14 A303 RMK A01 T10061144  RH  035%=      5-min Rain = 0
KSVS 130215Z 08012KT M01/M15 A3031 RMK A01 T10071145  RH  035%=      5-min Rain = 0
KSVS 130220Z 09011KT M01/M15 A3031 RMK A01 T10071145  RH  035%=      5-min Rain = 0
KSVS 130225Z 10010KT M01/M15 A303 RMK A01 T10081145  RH  035%=      5-min Rain = 0
KSVS 130230Z 10011KT M01/M15 A303 RMK A01 T10081145  RH  035%=      5-min Rain = 0
KSVS 130235Z 10011KT M01/M15 A303 RMK A01 T10091146  RH  035%=      5-min Rain = 0
KSVS 130240Z 09010KT M01/M15 A3032 RMK A01 T10101146  RH  035%=      5-min Rain = 0
KSVS 130245Z 09010KT M01/M15 A3032 RMK A01 T10101146  RH  035%=      5-min Rain = 0
KSVS 130250Z 08009KT M01/M15 A3033 RMK A01 T10101147  RH  035%=      5-min Rain = 0
KSVS 130255Z 07010KT M01/M15 A3034 RMK A01 T10111147  RH  035%=      5-min Rain = 0
KSVS 130300Z 07010KT M01/M15 A3034 RMK A01 T10121147  RH  035%=      5-min Rain = 0
KSVS 130305Z 06011KT M01/M15 A3035 RMK A01 T10131148  RH  035%=      5-min Rain = 0
KSVS 130310Z 08010KT M01/M15 A3035 RMK A01 T10141149  RH  035%=      5-min Rain = 0
KSVS 130315Z 09010KT M01/M15 A3035 RMK A01 T10141149  RH  035%=      5-min Rain = 0
KSVS 130320Z 09009KT M02/M15 A3035 RMK A01 T10151150  RH  036%=      5-min Rain = 0
KSVS 130325Z 08010KT M02/M15 A3035 RMK A01 T10161150  RH  036%=      5-min Rain = 0
KSVS 130330Z 07009KT M02/M15 A3036 RMK A01 T10171150  RH  036%=      5-min Rain = 0
KSVS 130335Z 08008KT M02/M15 A3036 RMK A01 T10191151  RH  036%=      5-min Rain = 0
KSVS 130340Z 08007KT M02/M15 A3036 RMK A01 T10211151  RH  037%=      5-min Rain = 0
KSVS 130345Z 09006KT M02/M15 A3036 RMK A01 T10231152  RH  037%=      5-min Rain = 0
KSVS 130350Z 10005KT M03/M15 A3036 RMK A01 T10271153  RH  038%=      5-min Rain = 0
KSVS 130355Z 08006KT M03/M16 A3037 RMK A01 T10331155  RH  039%=      5-min Rain = 0
KSVS 130400Z 08005KT M03/M16 A3037 RMK A01 T10341155  RH  039%=      5-min Rain = 0
KSVS 130405Z 08004KT M04/M16 A3037 RMK A01 T10351155  RH  039%=      5-min Rain = 0
KSVS 130410Z 09004KT M04/M16 A3038 RMK A01 T10351156  RH  039%=      5-min Rain = 0
KSVS 130415Z 09005KT M04/M16 A3038 RMK A01 T10381158  RH  040%=      5-min Rain = 0
KSVS 130420Z 09005KT M05/M16 A3038 RMK A01 T10451160  RH  041%=      5-min Rain = 0
KSVS 130425Z 07004KT M05/M16 A3039 RMK A01 T10471159  RH  042%=      5-min Rain = 0
KSVS 130430Z 06004KT M05/M16 A3039 RMK A01 T10481160  RH  042%=      5-min Rain = 0
KSVS 130435Z 05004KT M05/M16 A304 RMK A01 T10521158  RH  044%=      5-min Rain = 0
KSVS 130440Z 05003KT M06/M16 A304 RMK A01 T10551158  RH  045%=      5-min Rain = 0
KSVS 130445Z 04004KT M06/M16 A304 RMK A01 T10631161  RH  046%=      5-min Rain = 0
KSVS 130450Z 03006KT M07/M16 A3041 RMK A01 T10661159  RH  048%=      5-min Rain = 0
KSVS 130455Z 03006KT M07/M16 A3041 RMK A01 T10661158  RH  049%=      5-min Rain = 0
KSVS 130500Z 04005KT M07/M16 A3041 RMK A01 T10661158  RH  049%=      5-min Rain = 0
KSVS 130505Z 04006KT M07/M16 A3041 RMK A01 T10661158  RH  049%=      5-min Rain = 0
KSVS 130510Z 05005KT M07/M16 A3041 RMK A01 T10671158  RH  049%=      5-min Rain = 0
KSVS 130515Z 07004KT M07/M16 A304 RMK A01 T10651156  RH  049%=      5-min Rain = 0
KSVS 130520Z 10003KT M06/M15 A304 RMK A01 T10591154  RH  048%=      5-min Rain = 0
KSVS 130525Z 13003KT M06/M16 A304 RMK A01 T10551156  RH  046%=      5-min Rain = 0
KSVS 130530Z 14004KT M06/M16 A304 RMK A01 T10581158  RH  046%=      5-min Rain = 0
KSVS 130535Z 14005KT M06/M16 A304 RMK A01 T10591156  RH  047%=      5-min Rain = 0
KSVS 130540Z 16004KT M06/M16 A304 RMK A01 T10591157  RH  047%=      5-min Rain = 0
KSVS 130545Z 17005KT M06/M16 A304 RMK A01 T10621156  RH  048%=      5-min Rain = 0
KSVS 130550Z 18006KT M07/M16 A304 RMK A01 T10671158  RH  049%=      5-min Rain = 0
KSVS 130555Z 19007KT M07/M16 A304 RMK A01 T10741158  RH  052%=      5-min Rain = 0

Page generated in 0.0518 seconds.